createdAt,value
2018-08-17T00:00:28.609Z,24.27
2018-08-17T00:01:28.533Z,24.24
2018-08-17T00:02:28.435Z,24.24
2018-08-17T00:03:28.360Z,24.35
2018-08-17T00:04:28.284Z,24.31
2018-08-17T00:05:28.238Z,24.31
2018-08-17T00:06:28.156Z,24.35
2018-08-17T00:07:28.072Z,24.35
2018-08-17T00:08:28.001Z,24.35
2018-08-17T00:09:27.935Z,24.37
2018-08-17T00:10:27.895Z,24.34
2018-08-17T00:11:27.801Z,24.28
2018-08-17T00:12:27.730Z,24.30
2018-08-17T00:13:27.658Z,24.21
2018-08-17T00:14:27.591Z,24.20
2018-08-17T00:15:27.543Z,24.10
2018-08-17T00:16:27.451Z,24.12
2018-08-17T00:17:27.380Z,24.21
2018-08-17T00:18:27.396Z,24.20
2018-08-17T00:19:27.247Z,24.15
2018-08-17T00:20:27.205Z,24.12
2018-08-17T00:21:27.111Z,24.08
2018-08-17T00:22:27.045Z,24.10
2018-08-17T00:23:26.978Z,24.15
2018-08-17T00:24:26.916Z,24.08
2018-08-17T00:25:26.868Z,24.08
2018-08-17T00:26:26.772Z,24.08
2018-08-17T00:27:26.708Z,24.21
2018-08-17T00:28:26.648Z,24.22
2018-08-17T00:29:26.578Z,24.25
2018-08-17T00:30:26.541Z,24.20
2018-08-17T00:31:26.453Z,24.21
2018-08-17T00:32:26.385Z,24.22
2018-08-17T00:33:26.322Z,24.27
2018-08-17T00:34:26.259Z,24.21
2018-08-17T00:35:26.213Z,24.12
2018-08-17T00:36:26.119Z,24.15
2018-08-17T00:37:26.051Z,24.21
2018-08-17T00:38:25.988Z,24.24
2018-08-17T00:39:25.922Z,24.21
2018-08-17T00:40:25.880Z,24.22
2018-08-17T00:41:25.787Z,24.25
2018-08-17T00:42:25.720Z,24.24
2018-08-17T00:43:25.669Z,24.10
2018-08-17T00:44:25.583Z,24.08
2018-08-17T00:45:25.540Z,24.13
2018-08-17T00:46:25.451Z,24.09
2018-08-17T00:47:25.390Z,24.08
2018-08-17T00:48:25.332Z,24.02
2018-08-17T00:49:25.264Z,23.95
2018-08-17T00:50:25.225Z,23.88
2018-08-17T00:51:25.141Z,23.85
2018-08-17T00:52:25.078Z,23.75
2018-08-17T00:53:25.014Z,23.66
2018-08-17T00:54:24.963Z,23.68
2018-08-17T00:55:24.903Z,23.65
2018-08-17T00:56:24.860Z,23.48
2018-08-17T00:57:24.788Z,23.43
2018-08-17T00:58:24.721Z,23.50
2018-08-17T00:59:24.662Z,23.50
2018-08-17T01:00:24.611Z,23.43
2018-08-17T01:01:24.581Z,23.33
2018-08-17T01:02:24.500Z,23.22
2018-08-17T01:03:24.453Z,23.23
2018-08-17T01:04:24.404Z,23.23
2018-08-17T01:05:24.343Z,23.13
2018-08-17T01:06:24.319Z,23.12
2018-08-17T01:07:24.243Z,23.20
2018-08-17T01:08:24.197Z,23.19
2018-08-17T01:09:24.156Z,23.17
2018-08-17T01:10:24.105Z,23.23
2018-08-17T01:11:24.076Z,23.23
2018-08-17T01:12:24.006Z,23.36
2018-08-17T01:13:23.946Z,23.40
2018-08-17T01:14:23.896Z,23.39
2018-08-17T01:15:23.843Z,23.36
2018-08-17T01:16:23.816Z,23.32
2018-08-17T01:17:23.738Z,23.31
2018-08-17T01:18:23.685Z,23.31
2018-08-17T01:19:23.647Z,23.28
2018-08-17T01:20:23.584Z,23.35
2018-08-17T01:21:23.562Z,23.33
2018-08-17T01:22:23.490Z,23.22
2018-08-17T01:23:23.439Z,23.28
2018-08-17T01:24:23.390Z,23.23
2018-08-17T01:25:23.346Z,23.31
2018-08-17T01:26:23.316Z,23.27
2018-08-17T01:27:31.238Z,23.32
2018-08-17T01:28:23.193Z,23.31
2018-08-17T01:29:23.142Z,23.33
2018-08-17T01:30:23.094Z,23.32
2018-08-17T01:31:23.080Z,23.39
2018-08-17T01:32:22.994Z,23.38
2018-08-17T01:33:22.946Z,23.33
2018-08-17T01:34:22.902Z,23.27
2018-08-17T01:35:22.851Z,23.22
2018-08-17T01:36:22.835Z,23.22
2018-08-17T01:37:22.764Z,23.22
2018-08-17T01:38:22.719Z,23.22
2018-08-17T01:39:22.675Z,23.25
2018-08-17T01:40:22.678Z,23.33
2018-08-17T01:41:22.608Z,23.22
2018-08-17T01:42:22.543Z,23.27
2018-08-17T01:43:22.490Z,23.31
2018-08-17T01:44:22.444Z,23.19
2018-08-17T01:45:22.395Z,23.02
2018-08-17T01:46:22.375Z,23.00
2018-08-17T01:47:22.314Z,23.04
2018-08-17T01:48:22.256Z,22.88
2018-08-17T01:49:22.219Z,22.92
2018-08-17T01:50:22.154Z,22.83
2018-08-17T01:51:22.131Z,22.85
2018-08-17T01:52:22.056Z,22.86
2018-08-17T01:53:22.016Z,22.83
2018-08-17T01:54:21.964Z,22.90
2018-08-17T01:55:21.931Z,22.80
2018-08-17T01:56:21.903Z,22.91
2018-08-17T01:57:21.836Z,22.83
2018-08-17T01:58:21.783Z,22.92
2018-08-17T01:59:21.741Z,22.86
2018-08-17T02:00:21.689Z,22.95
2018-08-17T02:01:21.674Z,22.90
2018-08-17T02:02:21.596Z,22.95
2018-08-17T02:03:21.545Z,22.97
2018-08-17T02:04:21.497Z,23.00
2018-08-17T02:05:21.447Z,23.01
2018-08-17T02:06:21.430Z,22.91
2018-08-17T02:07:21.353Z,22.79
2018-08-17T02:08:21.305Z,22.95
2018-08-17T02:09:21.259Z,22.91
2018-08-17T02:10:21.206Z,22.88
2018-08-17T02:11:21.171Z,22.82
2018-08-17T02:12:21.149Z,22.80
2018-08-17T02:13:21.063Z,22.82
2018-08-17T02:14:21.017Z,22.85
2018-08-17T02:15:20.967Z,22.83
2018-08-17T02:16:20.939Z,22.72
2018-08-17T02:17:20.903Z,22.79
2018-08-17T02:18:20.837Z,22.75
2018-08-17T02:19:20.786Z,22.79
2018-08-17T02:20:20.754Z,22.82
2018-08-17T02:21:20.695Z,22.80
2018-08-17T02:22:20.678Z,22.77
2018-08-17T02:23:20.609Z,22.79
2018-08-17T02:24:20.564Z,22.79
2018-08-17T02:25:20.512Z,22.85
2018-08-17T02:26:20.462Z,22.86
2018-08-17T02:27:20.440Z,22.82
2018-08-17T02:28:20.370Z,22.82
2018-08-17T02:29:20.320Z,22.82
2018-08-17T02:30:20.279Z,22.77
2018-08-17T02:31:20.226Z,22.77
2018-08-17T02:32:20.205Z,22.82
2018-08-17T02:33:20.128Z,22.65
2018-08-17T02:34:20.080Z,22.76
2018-08-17T02:35:20.034Z,22.73
2018-08-17T02:36:19.994Z,22.75
2018-08-17T02:37:19.973Z,22.68
2018-08-17T02:38:19.894Z,22.72
2018-08-17T02:39:19.848Z,22.72
2018-08-17T02:40:19.801Z,22.73
2018-08-17T02:41:19.763Z,22.68
2018-08-17T02:42:19.735Z,22.73
2018-08-17T02:43:19.662Z,22.70
2018-08-17T02:44:19.616Z,22.65
2018-08-17T02:45:19.568Z,22.57
2018-08-17T02:46:19.528Z,22.55
2018-08-17T02:47:19.509Z,22.60
2018-08-17T02:48:19.443Z,22.49
2018-08-17T02:49:19.406Z,22.55
2018-08-17T02:50:19.369Z,22.57
2018-08-17T02:51:19.330Z,22.54
2018-08-17T02:52:19.321Z,22.54
2018-08-17T02:53:19.258Z,22.46
2018-08-17T02:54:19.215Z,22.61
2018-08-17T02:55:19.173Z,22.57
2018-08-17T02:56:19.134Z,22.57
2018-08-17T02:57:19.124Z,22.43
2018-08-17T02:58:19.056Z,22.42
2018-08-17T02:59:19.036Z,22.42
2018-08-17T03:00:18.972Z,22.42
2018-08-17T03:01:18.924Z,22.37
2018-08-17T03:02:18.940Z,22.49
2018-08-17T03:03:18.851Z,22.45
2018-08-17T03:04:18.802Z,22.39
2018-08-17T03:05:18.764Z,22.42
2018-08-17T03:06:18.735Z,22.46
2018-08-17T03:07:18.694Z,22.37
2018-08-17T03:08:18.679Z,22.31
2018-08-17T03:09:18.621Z,22.31
2018-08-17T03:10:18.577Z,22.28
2018-08-17T03:11:18.535Z,22.27
2018-08-17T03:12:18.500Z,22.25
2018-08-17T03:13:18.484Z,22.22
2018-08-17T03:14:18.415Z,22.21
2018-08-17T03:15:18.365Z,22.21
2018-08-17T03:16:18.335Z,22.09
2018-08-17T03:17:18.291Z,22.15
2018-08-17T03:18:18.280Z,22.15
2018-08-17T03:19:18.215Z,22.10
2018-08-17T03:20:18.177Z,22.14
2018-08-17T03:21:18.138Z,22.17
2018-08-17T03:22:18.099Z,22.14
2018-08-17T03:23:18.089Z,22.14
2018-08-17T03:24:18.030Z,22.15
2018-08-17T03:25:17.986Z,22.12
2018-08-17T03:26:17.954Z,22.06
2018-08-17T03:27:17.914Z,22.14
2018-08-17T03:28:17.902Z,22.05
2018-08-17T03:29:17.841Z,22.00
2018-08-17T03:30:17.805Z,21.94
2018-08-17T03:31:17.766Z,21.99
2018-08-17T03:32:17.727Z,21.99
2018-08-17T03:33:17.713Z,21.84
2018-08-17T03:34:17.645Z,21.91
2018-08-17T03:35:17.618Z,21.88
2018-08-17T03:36:17.563Z,21.92
2018-08-17T03:37:17.557Z,21.90
2018-08-17T03:38:17.517Z,21.86
2018-08-17T03:39:17.446Z,21.90
2018-08-17T03:40:17.407Z,21.88
2018-08-17T03:41:17.362Z,21.96
2018-08-17T03:42:17.330Z,21.99
2018-08-17T03:43:17.325Z,21.99
2018-08-17T03:44:17.272Z,22.00
2018-08-17T03:45:17.226Z,21.80
2018-08-17T03:46:17.191Z,21.84
2018-08-17T03:47:17.161Z,21.83
2018-08-17T03:48:17.148Z,21.91
2018-08-17T03:49:17.097Z,21.83
2018-08-17T03:50:17.057Z,21.80
2018-08-17T03:51:17.025Z,21.82
2018-08-17T03:52:16.994Z,21.90
2018-08-17T03:53:16.992Z,21.90
2018-08-17T03:54:16.934Z,21.86
2018-08-17T03:55:16.904Z,21.86
2018-08-17T03:56:16.872Z,21.86
2018-08-17T03:57:16.844Z,21.86
2018-08-17T03:58:16.849Z,21.86
2018-08-17T03:59:16.793Z,21.86
2018-08-17T04:00:16.767Z,21.91
2018-08-17T04:01:16.743Z,21.92
2018-08-17T04:02:16.711Z,21.96
2018-08-17T04:03:16.709Z,21.94
2018-08-17T04:04:16.654Z,21.94
2018-08-17T04:05:16.656Z,21.98
2018-08-17T04:06:16.587Z,21.96
2018-08-17T04:07:16.558Z,21.92
2018-08-17T04:08:16.555Z,21.99
2018-08-17T04:09:16.499Z,21.99
2018-08-17T04:10:16.467Z,21.92
2018-08-17T04:11:16.437Z,21.99
2018-08-17T04:12:16.403Z,21.90
2018-08-17T04:13:16.397Z,21.99
2018-08-17T04:14:16.339Z,21.98
2018-08-17T04:15:16.307Z,21.92
2018-08-17T04:16:16.276Z,22.00
2018-08-17T04:17:16.245Z,22.00
2018-08-17T04:18:16.260Z,21.98
2018-08-17T04:19:16.183Z,21.99
2018-08-17T04:20:16.147Z,21.84
2018-08-17T04:21:16.118Z,21.83
2018-08-17T04:22:16.085Z,21.94
2018-08-17T04:23:16.050Z,21.90
2018-08-17T04:24:16.044Z,21.91
2018-08-17T04:25:15.980Z,21.83
2018-08-17T04:26:15.948Z,21.86
2018-08-17T04:27:15.914Z,21.94
2018-08-17T04:28:15.878Z,21.96
2018-08-17T04:29:15.863Z,21.98
2018-08-17T04:30:15.806Z,21.94
2018-08-17T04:31:15.768Z,21.86
2018-08-17T04:32:15.736Z,21.91
2018-08-17T04:33:15.698Z,21.86
2018-08-17T04:34:15.686Z,21.79
2018-08-17T04:35:15.761Z,21.92
2018-08-17T04:36:15.585Z,21.84
2018-08-17T04:37:15.547Z,21.84
2018-08-17T04:38:15.513Z,21.91
2018-08-17T04:39:15.512Z,21.90
2018-08-17T04:40:15.445Z,21.98
2018-08-17T04:41:15.413Z,21.94
2018-08-17T04:42:15.379Z,21.99
2018-08-17T04:43:15.344Z,21.92
2018-08-17T04:44:15.339Z,21.96
2018-08-17T04:45:15.279Z,22.00
2018-08-17T04:46:15.247Z,21.94
2018-08-17T04:47:15.208Z,22.03
2018-08-17T04:48:15.177Z,22.02
2018-08-17T04:49:15.233Z,22.03
2018-08-17T04:50:15.113Z,22.05
2018-08-17T04:51:15.082Z,22.02
2018-08-17T04:52:15.040Z,22.07
2018-08-17T04:53:15.007Z,22.07
2018-08-17T04:54:15.004Z,22.02
2018-08-17T04:55:14.944Z,22.09
2018-08-17T04:56:14.914Z,22.05
2018-08-17T04:57:14.874Z,22.03
2018-08-17T04:58:14.841Z,22.09
2018-08-17T04:59:14.834Z,22.10
2018-08-17T05:00:14.779Z,22.06
2018-08-17T05:01:14.755Z,22.03
2018-08-17T05:02:14.706Z,22.07
2018-08-17T05:03:14.691Z,22.09
2018-08-17T05:04:14.662Z,22.06
2018-08-17T05:05:14.600Z,22.10
2018-08-17T05:06:14.570Z,22.14
2018-08-17T05:07:14.527Z,22.05
2018-08-17T05:08:14.492Z,22.10
2018-08-17T05:09:14.484Z,21.96
2018-08-17T05:10:14.418Z,21.96
2018-08-17T05:11:14.385Z,21.96
2018-08-17T05:12:14.351Z,21.90
2018-08-17T05:13:14.314Z,21.88
2018-08-17T05:14:14.319Z,21.80
2018-08-17T05:15:14.251Z,21.80
2018-08-17T05:16:14.217Z,21.62
2018-08-17T05:17:14.182Z,21.64
2018-08-17T05:18:14.150Z,21.50
2018-08-17T05:19:14.145Z,21.50
2018-08-17T05:20:14.090Z,21.58
2018-08-17T05:21:14.072Z,21.46
2018-08-17T05:22:14.018Z,21.44
2018-08-17T05:23:14.042Z,21.50
2018-08-17T05:24:13.999Z,21.52
2018-08-17T05:25:13.925Z,21.56
2018-08-17T05:26:13.889Z,21.62
2018-08-17T05:27:13.857Z,21.61
2018-08-17T05:28:13.833Z,21.64
2018-08-17T05:29:13.796Z,21.72
2018-08-17T05:30:13.790Z,21.74
2018-08-17T05:31:13.732Z,21.82
2018-08-17T05:32:13.701Z,21.82
2018-08-17T05:33:13.669Z,21.82
2018-08-17T05:34:13.637Z,21.88
2018-08-17T05:35:13.625Z,21.92
2018-08-17T05:36:13.566Z,21.92
2018-08-17T05:37:13.535Z,21.91
2018-08-17T05:38:13.502Z,21.98
2018-08-17T05:39:13.466Z,21.96
2018-08-17T05:40:13.455Z,22.02
2018-08-17T05:41:13.393Z,21.91
2018-08-17T05:42:13.365Z,22.05
2018-08-17T05:43:13.325Z,21.99
2018-08-17T05:44:13.297Z,22.02
2018-08-17T05:45:13.370Z,21.98
2018-08-17T05:46:13.232Z,22.02
2018-08-17T05:47:13.207Z,22.15
2018-08-17T05:48:13.168Z,22.14
2018-08-17T05:49:13.140Z,22.09
2018-08-17T05:50:13.123Z,22.15
2018-08-17T05:51:13.063Z,22.18
2018-08-17T05:52:13.025Z,22.20
2018-08-17T05:53:12.987Z,22.12
2018-08-17T05:54:12.948Z,22.27
2018-08-17T05:55:12.937Z,22.24
2018-08-17T05:56:12.870Z,22.31
2018-08-17T05:57:12.830Z,22.30
2018-08-17T05:58:12.795Z,22.30
2018-08-17T05:59:12.763Z,22.31
2018-08-17T06:00:12.743Z,22.17
2018-08-17T06:01:12.683Z,22.24
2018-08-17T06:02:12.645Z,22.35
2018-08-17T06:03:12.608Z,22.40
2018-08-17T06:04:12.565Z,22.43
2018-08-17T06:05:12.549Z,22.37
2018-08-17T06:06:12.483Z,22.46
2018-08-17T06:07:12.446Z,22.49
2018-08-17T06:08:12.396Z,22.49
2018-08-17T06:09:12.361Z,22.43
2018-08-17T06:10:12.325Z,22.52
2018-08-17T06:11:12.427Z,22.46
2018-08-17T06:12:12.208Z,22.52
2018-08-17T06:13:12.162Z,22.47
2018-08-17T06:14:12.110Z,22.52
2018-08-17T06:15:12.090Z,22.45
2018-08-17T06:16:19.573Z,22.45
2018-08-17T06:17:11.966Z,22.49
2018-08-17T06:18:11.924Z,22.46
2018-08-17T06:19:11.943Z,22.42
2018-08-17T06:20:11.857Z,22.43
2018-08-17T06:21:11.782Z,22.40
2018-08-17T06:22:11.742Z,22.39
2018-08-17T06:23:11.698Z,22.40
2018-08-17T06:24:11.648Z,22.33
2018-08-17T06:25:11.626Z,22.39
2018-08-17T06:26:11.554Z,22.22
2018-08-17T06:27:11.513Z,22.27
2018-08-17T06:28:11.463Z,22.30
2018-08-17T06:29:11.419Z,22.30
2018-08-17T06:30:11.405Z,22.35
2018-08-17T06:31:11.339Z,22.35
2018-08-17T06:32:11.295Z,22.24
2018-08-17T06:33:11.249Z,22.30
2018-08-17T06:34:11.205Z,22.28
2018-08-17T06:35:11.161Z,22.35
2018-08-17T06:36:11.258Z,22.37
2018-08-17T06:37:11.130Z,22.40
2018-08-17T06:38:11.030Z,22.42
2018-08-17T06:39:10.986Z,22.46
2018-08-17T06:40:10.933Z,22.60
2018-08-17T06:41:10.910Z,22.55
2018-08-17T06:42:10.831Z,22.65
2018-08-17T06:43:10.784Z,22.65
2018-08-17T06:44:10.736Z,22.67
2018-08-17T06:45:10.685Z,22.75
2018-08-17T06:46:10.664Z,22.76
2018-08-17T06:47:10.584Z,22.82
2018-08-17T06:48:10.540Z,22.76
2018-08-17T06:49:10.489Z,22.86
2018-08-17T06:50:10.437Z,22.85
2018-08-17T06:51:10.479Z,22.85
2018-08-17T06:52:10.335Z,22.86
2018-08-17T06:53:10.293Z,22.83
2018-08-17T06:54:10.269Z,22.80
2018-08-17T06:55:10.183Z,22.92
2018-08-17T06:56:10.161Z,22.88
2018-08-17T06:57:10.089Z,22.92
2018-08-17T06:58:10.039Z,22.90
2018-08-17T06:59:09.990Z,23.00
2018-08-17T07:00:09.945Z,22.97
2018-08-17T07:01:09.920Z,22.98
2018-08-17T07:02:09.847Z,22.92
2018-08-17T07:03:09.803Z,22.97
2018-08-17T07:04:09.757Z,23.00
2018-08-17T07:05:09.703Z,23.04
2018-08-17T07:06:09.680Z,23.00
2018-08-17T07:07:09.603Z,23.07
2018-08-17T07:08:09.559Z,23.09
2018-08-17T07:09:09.595Z,23.09
2018-08-17T07:10:09.456Z,23.17
2018-08-17T07:11:09.425Z,23.20
2018-08-17T07:12:09.349Z,23.25
2018-08-17T07:13:09.304Z,23.31
2018-08-17T07:14:09.250Z,23.43
2018-08-17T07:15:09.196Z,23.46
2018-08-17T07:16:09.170Z,23.55
2018-08-17T07:17:09.092Z,23.58
2018-08-17T07:18:09.039Z,23.79
2018-08-17T07:19:08.987Z,23.76
2018-08-17T07:20:08.939Z,23.83
2018-08-17T07:21:08.914Z,23.78
2018-08-17T07:22:08.832Z,23.83
2018-08-17T07:23:08.778Z,23.87
2018-08-17T07:24:08.732Z,23.85
2018-08-17T07:25:08.677Z,23.93
2018-08-17T07:26:08.648Z,23.90
2018-08-17T07:27:08.566Z,23.83
2018-08-17T07:28:08.561Z,23.88
2018-08-17T07:29:08.456Z,23.97
2018-08-17T07:30:08.390Z,23.90
2018-08-17T07:31:08.361Z,23.97
2018-08-17T07:32:08.278Z,24.02
2018-08-17T07:33:08.215Z,24.00
2018-08-17T07:34:08.157Z,24.02
2018-08-17T07:35:08.107Z,24.09
2018-08-17T07:36:08.065Z,24.12
2018-08-17T07:37:07.973Z,24.08
2018-08-17T07:38:07.911Z,24.03
2018-08-17T07:39:07.847Z,24.12
2018-08-17T07:40:07.785Z,24.09
2018-08-17T07:41:07.750Z,24.09
2018-08-17T07:42:07.662Z,24.15
2018-08-17T07:43:07.597Z,24.10
2018-08-17T07:44:07.536Z,24.24
2018-08-17T07:45:07.466Z,24.25
2018-08-17T07:46:07.433Z,24.20
2018-08-17T07:47:07.330Z,24.39
2018-08-17T07:48:07.404Z,24.35
2018-08-17T07:49:07.197Z,24.39
2018-08-17T07:50:07.128Z,24.45
2018-08-17T07:51:07.085Z,24.50
2018-08-17T07:52:07.020Z,24.58
2018-08-17T07:53:06.921Z,24.64
2018-08-17T07:54:06.853Z,24.71
2018-08-17T07:55:06.780Z,24.67
2018-08-17T07:56:06.707Z,24.71
2018-08-17T07:57:06.665Z,24.80
2018-08-17T07:58:06.567Z,24.77
2018-08-17T07:59:06.534Z,24.85
2018-08-17T08:00:06.428Z,24.84
2018-08-17T08:01:06.354Z,24.87
2018-08-17T08:02:06.306Z,24.84
2018-08-17T08:03:06.203Z,24.95
2018-08-17T08:04:06.127Z,24.93
2018-08-17T08:05:06.043Z,24.96
2018-08-17T08:06:05.967Z,25.02
2018-08-17T08:07:05.916Z,24.91
2018-08-17T08:08:05.812Z,25.02
2018-08-17T08:09:05.732Z,25.06
2018-08-17T08:10:05.654Z,25.03
2018-08-17T08:11:05.633Z,25.03
2018-08-17T08:12:05.519Z,24.99
2018-08-17T08:13:05.412Z,25.02
2018-08-17T08:14:05.331Z,25.05
2018-08-17T08:15:05.279Z,25.02
2018-08-17T08:16:05.179Z,25.05
2018-08-17T08:17:05.123Z,25.05
2018-08-17T08:18:05.020Z,25.06
2018-08-17T08:19:04.936Z,25.08
2018-08-17T08:20:04.856Z,25.03
2018-08-17T08:21:04.777Z,25.09
2018-08-17T08:22:04.720Z,25.06
2018-08-17T08:23:04.618Z,25.05
2018-08-17T08:24:04.540Z,25.03
2018-08-17T08:25:04.456Z,25.05
2018-08-17T08:26:04.393Z,25.18
2018-08-17T08:27:04.322Z,25.20
2018-08-17T08:28:04.222Z,25.03
2018-08-17T08:29:04.138Z,25.23
2018-08-17T08:30:04.051Z,25.15
2018-08-17T08:31:03.974Z,25.15
2018-08-17T08:32:03.917Z,25.15
2018-08-17T08:33:03.810Z,25.28
2018-08-17T08:34:03.727Z,25.25
2018-08-17T08:35:03.642Z,25.27
2018-08-17T08:36:03.559Z,25.32
2018-08-17T08:37:03.498Z,25.32
2018-08-17T08:38:03.391Z,25.36
2018-08-17T08:39:03.306Z,25.32
2018-08-17T08:40:03.220Z,25.43
2018-08-17T08:41:03.135Z,25.38
2018-08-17T08:42:03.080Z,25.38
2018-08-17T08:43:02.970Z,25.36
2018-08-17T08:44:02.891Z,25.32
2018-08-17T08:45:02.815Z,25.39
2018-08-17T08:46:02.846Z,25.32
2018-08-17T08:47:02.669Z,25.33
2018-08-17T08:48:02.563Z,25.38
2018-08-17T08:49:02.476Z,25.39
2018-08-17T08:50:02.392Z,25.38
2018-08-17T08:51:02.308Z,25.38
2018-08-17T08:52:02.288Z,25.33
2018-08-17T08:53:02.174Z,25.35
2018-08-17T08:54:02.065Z,25.38
2018-08-17T08:55:01.985Z,25.35
2018-08-17T08:56:01.952Z,25.39
2018-08-17T08:57:01.814Z,25.35
2018-08-17T08:58:01.750Z,25.35
2018-08-17T08:59:01.652Z,25.32
2018-08-17T09:00:01.568Z,25.38
2018-08-17T09:01:01.461Z,25.36
2018-08-17T09:02:01.373Z,25.35
2018-08-17T09:03:01.313Z,25.39
2018-08-17T09:04:01.206Z,25.40
2018-08-17T09:05:01.117Z,25.40
2018-08-17T09:06:01.028Z,25.36
2018-08-17T09:07:00.943Z,25.35
2018-08-17T09:08:00.884Z,25.46
2018-08-17T09:09:00.770Z,25.45
2018-08-17T09:10:00.677Z,25.39
2018-08-17T09:11:00.588Z,25.51
2018-08-17T09:12:00.498Z,25.52
2018-08-17T09:13:00.441Z,25.51
2018-08-17T09:14:00.314Z,25.55
2018-08-17T09:15:00.218Z,25.57
2018-08-17T09:16:00.121Z,25.57
2018-08-17T09:17:00.073Z,25.58
2018-08-17T09:17:59.973Z,25.58
2018-08-17T09:18:59.839Z,25.60
2018-08-17T09:19:59.744Z,25.54
2018-08-17T09:20:59.649Z,25.61
2018-08-17T09:21:59.554Z,25.61
2018-08-17T09:22:59.490Z,25.58
2018-08-17T09:23:59.371Z,25.60
2018-08-17T09:24:59.277Z,25.65
2018-08-17T09:25:59.183Z,25.62
2018-08-17T09:26:59.085Z,25.72
2018-08-17T09:27:59.012Z,25.72
2018-08-17T09:28:58.886Z,25.77
2018-08-17T09:29:58.805Z,25.70
2018-08-17T09:30:58.698Z,25.75
2018-08-17T09:31:58.603Z,25.75
2018-08-17T09:32:58.541Z,25.77
2018-08-17T09:33:58.410Z,25.87
2018-08-17T09:34:58.305Z,25.82
2018-08-17T09:35:58.214Z,25.85
2018-08-17T09:36:58.144Z,25.85
2018-08-17T09:37:58.048Z,25.83
2018-08-17T09:38:57.904Z,25.99
2018-08-17T09:39:57.811Z,25.95
2018-08-17T09:40:57.716Z,25.92
2018-08-17T09:41:57.647Z,25.99
2018-08-17T09:42:57.566Z,26.07
2018-08-17T09:43:57.419Z,26.09
2018-08-17T09:44:57.318Z,26.12
2018-08-17T09:45:57.217Z,26.15
2018-08-17T09:46:57.118Z,26.17
2018-08-17T09:47:57.044Z,26.20
2018-08-17T09:48:56.917Z,26.18
2018-08-17T09:49:56.821Z,26.18
2018-08-17T09:50:56.725Z,26.25
2018-08-17T09:51:56.630Z,26.30
2018-08-17T09:52:56.561Z,26.30
2018-08-17T09:53:56.433Z,26.33
2018-08-17T09:54:56.333Z,26.33
2018-08-17T09:55:56.230Z,26.36
2018-08-17T09:56:56.131Z,26.33
2018-08-17T09:57:56.132Z,26.33
2018-08-17T09:58:55.928Z,26.33
2018-08-17T09:59:55.829Z,26.26
2018-08-17T10:00:55.732Z,26.43
2018-08-17T10:01:55.635Z,26.40
2018-08-17T10:02:55.577Z,26.40
2018-08-17T10:03:55.462Z,26.45
2018-08-17T10:04:55.333Z,26.44
2018-08-17T10:05:55.238Z,26.50
2018-08-17T10:06:55.140Z,26.47
2018-08-17T10:07:55.038Z,26.57
2018-08-17T10:08:54.963Z,26.62
2018-08-17T10:09:54.839Z,26.51
2018-08-17T10:10:54.733Z,26.50
2018-08-17T10:11:54.631Z,26.52
2018-08-17T10:12:54.531Z,26.60
2018-08-17T10:13:54.456Z,26.58
2018-08-17T10:14:54.326Z,26.60
2018-08-17T10:15:54.317Z,26.63
2018-08-17T10:16:54.117Z,26.63
2018-08-17T10:17:54.014Z,26.66
2018-08-17T10:18:53.945Z,26.72
2018-08-17T10:19:53.810Z,26.73
2018-08-17T10:20:53.730Z,26.76
2018-08-17T10:21:53.913Z,26.76
2018-08-17T10:22:53.507Z,26.77
2018-08-17T10:23:53.423Z,26.87
2018-08-17T10:24:53.290Z,26.81
2018-08-17T10:25:53.190Z,26.84
2018-08-17T10:26:53.090Z,26.87
2018-08-17T10:27:52.990Z,26.88
2018-08-17T10:28:52.907Z,26.92
2018-08-17T10:29:52.778Z,26.77
2018-08-17T10:30:52.671Z,26.92
2018-08-17T10:31:52.568Z,26.99
2018-08-17T10:32:52.464Z,26.94
2018-08-17T10:33:52.396Z,27.02
2018-08-17T10:34:52.258Z,27.03
2018-08-17T10:35:52.151Z,27.13
2018-08-17T10:36:52.047Z,27.10
2018-08-17T10:37:51.936Z,27.12
2018-08-17T10:38:51.854Z,27.13
2018-08-17T10:39:51.719Z,27.18
2018-08-17T10:40:51.628Z,27.12
2018-08-17T10:41:51.509Z,27.24
2018-08-17T10:42:51.400Z,27.25
2018-08-17T10:43:51.322Z,27.32
2018-08-17T10:44:51.189Z,27.31
2018-08-17T10:45:51.082Z,27.24
2018-08-17T10:46:50.970Z,27.24
2018-08-17T10:47:50.859Z,27.28
2018-08-17T10:48:50.871Z,27.27
2018-08-17T10:49:50.636Z,27.27
2018-08-17T10:50:50.527Z,27.31
2018-08-17T10:51:50.416Z,27.34
2018-08-17T10:52:50.308Z,27.39
2018-08-17T10:53:50.234Z,27.40
2018-08-17T10:54:50.093Z,27.34
2018-08-17T10:55:49.987Z,27.41
2018-08-17T10:56:49.881Z,27.39
2018-08-17T10:57:49.769Z,27.39
2018-08-17T10:58:49.660Z,27.39
2018-08-17T10:59:49.576Z,27.43
2018-08-17T11:00:49.447Z,27.39
2018-08-17T11:01:49.337Z,27.46
2018-08-17T11:02:49.224Z,27.44
2018-08-17T11:03:49.110Z,27.41
2018-08-17T11:04:49.032Z,27.49
2018-08-17T11:05:48.880Z,27.47
2018-08-17T11:06:48.768Z,27.44
2018-08-17T11:07:48.661Z,27.50
2018-08-17T11:08:48.541Z,27.54
2018-08-17T11:09:48.454Z,27.54
2018-08-17T11:10:48.342Z,27.51
2018-08-17T11:11:48.200Z,27.51
2018-08-17T11:12:48.082Z,27.51
2018-08-17T11:13:47.967Z,27.51
2018-08-17T11:14:47.877Z,27.55
2018-08-17T11:15:47.734Z,27.57
2018-08-17T11:16:47.616Z,27.62
2018-08-17T11:17:47.503Z,27.54
2018-08-17T11:18:47.381Z,27.66
2018-08-17T11:19:47.290Z,27.63
2018-08-17T11:20:47.152Z,27.60
2018-08-17T11:21:47.033Z,27.78
2018-08-17T11:22:46.911Z,27.70
2018-08-17T11:23:46.794Z,27.72
2018-08-17T11:24:46.702Z,27.75
2018-08-17T11:25:46.550Z,27.78
2018-08-17T11:26:46.432Z,27.72
2018-08-17T11:27:46.308Z,27.77
2018-08-17T11:28:46.192Z,27.74
2018-08-17T11:29:46.097Z,27.75
2018-08-17T11:30:45.950Z,27.81
2018-08-17T11:31:45.823Z,27.93
2018-08-17T11:32:45.705Z,27.97
2018-08-17T11:33:45.583Z,27.92
2018-08-17T11:34:45.486Z,27.94
2018-08-17T11:35:45.330Z,28.04
2018-08-17T11:36:45.205Z,28.03
2018-08-17T11:37:45.081Z,28.15
2018-08-17T11:38:44.955Z,28.12
2018-08-17T11:39:44.852Z,28.11
2018-08-17T11:40:44.697Z,28.19
2018-08-17T11:41:44.565Z,28.19
2018-08-17T11:42:44.439Z,28.29
2018-08-17T11:43:44.310Z,28.22
2018-08-17T11:44:44.205Z,28.29
2018-08-17T11:45:44.048Z,28.30
2018-08-17T11:46:43.919Z,28.37
2018-08-17T11:47:43.789Z,28.36
2018-08-17T11:48:43.664Z,28.31
2018-08-17T11:49:43.552Z,28.34
2018-08-17T11:50:43.402Z,28.51
2018-08-17T11:51:43.267Z,28.51
2018-08-17T11:52:43.144Z,28.49
2018-08-17T11:53:43.067Z,28.49
2018-08-17T11:54:42.915Z,28.55
2018-08-17T11:55:42.746Z,28.59
2018-08-17T11:56:42.615Z,28.62
2018-08-17T11:57:42.486Z,28.67
2018-08-17T11:58:42.355Z,28.66
2018-08-17T11:59:42.226Z,28.80
2018-08-17T12:00:42.113Z,28.86
2018-08-17T12:01:41.950Z,28.92
2018-08-17T12:02:41.813Z,28.95
2018-08-17T12:03:41.673Z,28.89
2018-08-17T12:04:41.545Z,28.98
2018-08-17T12:05:41.426Z,29.05
2018-08-17T12:06:41.265Z,29.02
2018-08-17T12:07:41.124Z,29.12
2018-08-17T12:08:41.054Z,29.15
2018-08-17T12:09:40.840Z,29.23
2018-08-17T12:10:40.724Z,29.31
2018-08-17T12:11:40.551Z,29.26
2018-08-17T12:12:40.405Z,29.39
2018-08-17T12:13:40.258Z,29.39
2018-08-17T12:14:40.111Z,29.43
2018-08-17T12:15:39.992Z,29.51
2018-08-17T12:16:39.819Z,29.46
2018-08-17T12:17:39.671Z,29.55
2018-08-17T12:18:39.527Z,29.55
2018-08-17T12:19:39.367Z,29.63
2018-08-17T12:20:39.246Z,29.65
2018-08-17T12:21:39.069Z,29.64
2018-08-17T12:22:38.927Z,29.68
2018-08-17T12:23:38.780Z,29.65
2018-08-17T12:24:38.735Z,29.64
2018-08-17T12:25:38.513Z,29.78
2018-08-17T12:26:38.332Z,29.73
2018-08-17T12:27:38.184Z,29.83
2018-08-17T12:28:38.027Z,29.83
2018-08-17T12:29:37.879Z,29.79
2018-08-17T12:30:37.743Z,29.87
2018-08-17T12:31:37.568Z,29.82
2018-08-17T12:32:37.414Z,29.83
2018-08-17T12:33:37.263Z,29.82
2018-08-17T12:34:37.107Z,29.97
2018-08-17T12:35:36.981Z,29.98
2018-08-17T12:36:36.808Z,30.02
2018-08-17T12:37:36.652Z,29.97
2018-08-17T12:38:36.495Z,30.04
2018-08-17T12:39:36.343Z,30.10
2018-08-17T12:40:36.213Z,30.08
2018-08-17T12:41:36.030Z,30.17
2018-08-17T12:42:35.884Z,30.24
2018-08-17T12:43:35.724Z,30.23
2018-08-17T12:44:35.561Z,30.34
2018-08-17T12:45:35.438Z,30.43
2018-08-17T12:46:35.323Z,30.55
2018-08-17T12:47:35.068Z,30.58
2018-08-17T12:48:34.903Z,30.58
2018-08-17T12:49:34.743Z,30.70
2018-08-17T12:50:34.572Z,30.67
2018-08-17T12:51:34.438Z,30.79